sensor_id;sensor_type;location;lat;lon;timestamp;pressure;altitude;pressure_sealevel;temperature
42119;BMP280;27783;42.782;23.274;2022-10-31T00:00:49;95948.94;;;11.89
42119;BMP280;27783;42.782;23.274;2022-10-31T00:03:17;95959.47;;;12.06
42119;BMP280;27783;42.782;23.274;2022-10-31T00:05:43;95952.72;;;11.98
42119;BMP280;27783;42.782;23.274;2022-10-31T00:08:10;95949.31;;;11.91
42119;BMP280;27783;42.782;23.274;2022-10-31T00:10:51;95962.53;;;11.91
42119;BMP280;27783;42.782;23.274;2022-10-31T00:13:18;95956.47;;;12.14
42119;BMP280;27783;42.782;23.274;2022-10-31T00:15:43;95958.72;;;12.16
42119;BMP280;27783;42.782;23.274;2022-10-31T00:18:10;95950.41;;;12.20
42119;BMP280;27783;42.782;23.274;2022-10-31T00:20:38;95953.84;;;12.11
42119;BMP280;27783;42.782;23.274;2022-10-31T00:23:05;95947.41;;;12.08
42119;BMP280;27783;42.782;23.274;2022-10-31T00:25:37;95952.72;;;12.01
42119;BMP280;27783;42.782;23.274;2022-10-31T00:28:14;95956.09;;;12.09
42119;BMP280;27783;42.782;23.274;2022-10-31T00:30:39;95955.72;;;12.03
42119;BMP280;27783;42.782;23.274;2022-10-31T00:33:04;95958.34;;;12.07
42119;BMP280;27783;42.782;23.274;2022-10-31T00:35:31;95957.59;;;12.10
42119;BMP280;27783;42.782;23.274;2022-10-31T00:37:59;95957.97;;;12.08
42119;BMP280;27783;42.782;23.274;2022-10-31T00:40:27;95953.44;;;12.12
42119;BMP280;27783;42.782;23.274;2022-10-31T00:42:55;95954.22;;;12.02
42119;BMP280;27783;42.782;23.274;2022-10-31T00:45:21;95942.88;;;11.92
42119;BMP280;27783;42.782;23.274;2022-10-31T00:47:50;95951.56;;;11.89
42119;BMP280;27783;42.782;23.274;2022-10-31T00:50:16;95951.22;;;11.87
42119;BMP280;27783;42.782;23.274;2022-10-31T00:52:43;95966.31;;;11.73
42119;BMP280;27783;42.782;23.274;2022-10-31T00:55:09;95958.00;;;11.64
42119;BMP280;27783;42.782;23.274;2022-10-31T00:57:35;95961.41;;;11.54
42119;BMP280;27783;42.782;23.274;2022-10-31T01:00:00;95953.47;;;11.54
42119;BMP280;27783;42.782;23.274;2022-10-31T01:02:26;95950.44;;;11.46
42119;BMP280;27783;42.782;23.274;2022-10-31T01:04:53;95958.00;;;11.47
42119;BMP280;27783;42.782;23.274;2022-10-31T01:07:19;95965.91;;;11.37
42119;BMP280;27783;42.782;23.274;2022-10-31T01:09:44;95961.75;;;11.36
42119;BMP280;27783;42.782;23.274;2022-10-31T01:12:09;95964.72;;;11.24
42119;BMP280;27783;42.782;23.274;2022-10-31T01:14:35;95966.28;;;11.25
42119;BMP280;27783;42.782;23.274;2022-10-31T01:17:01;95969.28;;;11.27
42119;BMP280;27783;42.782;23.274;2022-10-31T01:19:31;95970.38;;;11.23
42119;BMP280;27783;42.782;23.274;2022-10-31T01:21:56;95961.72;;;11.22
42119;BMP280;27783;42.782;23.274;2022-10-31T01:24:23;95966.97;;;11.16
42119;BMP280;27783;42.782;23.274;2022-10-31T01:26:50;95963.97;;;11.17
42119;BMP280;27783;42.782;23.274;2022-10-31T01:29:18;95964.72;;;11.21
42119;BMP280;27783;42.782;23.274;2022-10-31T01:31:43;95977.13;;;11.14
42119;BMP280;27783;42.782;23.274;2022-10-31T01:34:18;95977.91;;;11.24
42119;BMP280;27783;42.782;23.274;2022-10-31T01:36:46;95975.97;;;11.01
42119;BMP280;27783;42.782;23.274;2022-10-31T01:39:17;95981.50;;;10.66
42119;BMP280;27783;42.782;23.274;2022-10-31T01:41:46;95972.97;;;11.02
42119;BMP280;27783;42.782;23.274;2022-10-31T01:47:15;95977.84;;;10.97
42119;BMP280;27783;42.782;23.274;2022-10-31T01:49:57;95969.13;;;10.76
42119;BMP280;27783;42.782;23.274;2022-10-31T01:52:46;95979.19;;;10.57
42119;BMP280;27783;42.782;23.274;2022-10-31T01:55:30;95976.31;;;10.86
42119;BMP280;27783;42.782;23.274;2022-10-31T01:58:05;95971.03;;;10.82
42119;BMP280;27783;42.782;23.274;2022-10-31T02:00:31;95978.16;;;10.75
42119;BMP280;27783;42.782;23.274;2022-10-31T02:02:58;95984.16;;;10.69
42119;BMP280;27783;42.782;23.274;2022-10-31T02:05:27;95971.97;;;10.44
42119;BMP280;27783;42.782;23.274;2022-10-31T02:11:03;95968.75;;;10.78
42119;BMP280;27783;42.782;23.274;2022-10-31T02:13:30;95977.00;;;10.66
42119;BMP280;27783;42.782;23.274;2022-10-31T02:15:57;95980.38;;;10.70
42119;BMP280;27783;42.782;23.274;2022-10-31T02:18:32;95982.31;;;10.86
42119;BMP280;27783;42.782;23.274;2022-10-31T02:27:07;95993.25;;;10.85
42119;BMP280;27783;42.782;23.274;2022-10-31T02:41:04;95995.69;;;10.41
42119;BMP280;27783;42.782;23.274;2022-10-31T02:46:41;95999.78;;;10.35
42119;BMP280;27783;42.782;23.274;2022-10-31T02:49:31;96004.28;;;10.31
42119;BMP280;27783;42.782;23.274;2022-10-31T02:52:00;96010.66;;;10.23
42119;BMP280;27783;42.782;23.274;2022-10-31T02:54:29;96013.69;;;10.32
42119;BMP280;27783;42.782;23.274;2022-10-31T02:57:04;96015.63;;;10.38
42119;BMP280;27783;42.782;23.274;2022-10-31T02:59:32;96020.34;;;10.13
42119;BMP280;27783;42.782;23.274;2022-10-31T03:04:49;96030.69;;;9.89
42119;BMP280;27783;42.782;23.274;2022-10-31T03:10:26;96023.66;;;9.61
42119;BMP280;27783;42.782;23.274;2022-10-31T03:13:11;96018.97;;;9.41
42119;BMP280;27783;42.782;23.274;2022-10-31T03:15:43;96019.16;;;9.65
42119;BMP280;27783;42.782;23.274;2022-10-31T03:20:50;96027.31;;;9.88
42119;BMP280;27783;42.782;23.274;2022-10-31T03:23:19;96027.22;;;9.39
42119;BMP280;27783;42.782;23.274;2022-10-31T03:25:50;96018.41;;;9.25
42119;BMP280;27783;42.782;23.274;2022-10-31T03:28:19;96029.16;;;9.46
42119;BMP280;27783;42.782;23.274;2022-10-31T03:30:47;96027.59;;;9.38
42119;BMP280;27783;42.782;23.274;2022-10-31T03:33:17;96033.63;;;9.42
42119;BMP280;27783;42.782;23.274;2022-10-31T03:36:02;96043.66;;;9.30
42119;BMP280;27783;42.782;23.274;2022-10-31T03:38:29;96035.25;;;9.17
42119;BMP280;27783;42.782;23.274;2022-10-31T03:40:58;96046.03;;;9.09
42119;BMP280;27783;42.782;23.274;2022-10-31T03:43:28;96044.31;;;8.88
42119;BMP280;27783;42.782;23.274;2022-10-31T03:45:58;96053.88;;;8.74
42119;BMP280;27783;42.782;23.274;2022-10-31T03:48:27;96049.00;;;9.04
42119;BMP280;27783;42.782;23.274;2022-10-31T03:51:24;96049.22;;;8.93
42119;BMP280;27783;42.782;23.274;2022-10-31T03:53:57;96046.59;;;8.93
42119;BMP280;27783;42.782;23.274;2022-10-31T03:56:42;96056.59;;;8.52
42119;BMP280;27783;42.782;23.274;2022-10-31T03:59:20;96051.47;;;8.91
42119;BMP280;27783;42.782;23.274;2022-10-31T04:01:50;96044.22;;;8.81
42119;BMP280;27783;42.782;23.274;2022-10-31T04:04:39;96065.78;;;8.93
42119;BMP280;27783;42.782;23.274;2022-10-31T04:07:14;96060.75;;;8.82
42119;BMP280;27783;42.782;23.274;2022-10-31T04:09:42;96066.78;;;8.82
42119;BMP280;27783;42.782;23.274;2022-10-31T04:12:11;96065.47;;;8.98
42119;BMP280;27783;42.782;23.274;2022-10-31T04:14:43;96058.47;;;8.80
42119;BMP280;27783;42.782;23.274;2022-10-31T04:17:13;96058.41;;;8.77
42119;BMP280;27783;42.782;23.274;2022-10-31T04:19:40;96065.06;;;8.67
42119;BMP280;27783;42.782;23.274;2022-10-31T04:22:09;96057.69;;;8.80
42119;BMP280;27783;42.782;23.274;2022-10-31T04:24:36;96065.41;;;8.95
42119;BMP280;27783;42.782;23.274;2022-10-31T04:27:09;96071.25;;;8.82
42119;BMP280;27783;42.782;23.274;2022-10-31T04:29:36;96067.03;;;8.74
42119;BMP280;27783;42.782;23.274;2022-10-31T04:32:10;96066.97;;;8.99
42119;BMP280;27783;42.782;23.274;2022-10-31T04:34:36;96071.94;;;8.75
42119;BMP280;27783;42.782;23.274;2022-10-31T04:37:01;96066.94;;;8.67
42119;BMP280;27783;42.782;23.274;2022-10-31T04:39:29;96066.47;;;8.90
42119;BMP280;27783;42.782;23.274;2022-10-31T04:41:56;96077.75;;;8.62
42119;BMP280;27783;42.782;23.274;2022-10-31T04:44:21;96069.13;;;8.62
42119;BMP280;27783;42.782;23.274;2022-10-31T04:46:47;96071.75;;;8.90
42119;BMP280;27783;42.782;23.274;2022-10-31T04:49:14;96077.09;;;8.68
42119;BMP280;27783;42.782;23.274;2022-10-31T04:51:40;96081.75;;;8.53
42119;BMP280;27783;42.782;23.274;2022-10-31T04:54:07;96080.56;;;8.76
42119;BMP280;27783;42.782;23.274;2022-10-31T04:56:32;96084.41;;;8.56
42119;BMP280;27783;42.782;23.274;2022-10-31T04:59:01;96097.88;;;8.80
42119;BMP280;27783;42.782;23.274;2022-10-31T05:01:26;96092.72;;;8.58
42119;BMP280;27783;42.782;23.274;2022-10-31T05:03:53;96092.88;;;8.68
42119;BMP280;27783;42.782;23.274;2022-10-31T05:06:20;96089.28;;;8.83
42119;BMP280;27783;42.782;23.274;2022-10-31T05:08:47;96093.78;;;8.54
42119;BMP280;27783;42.782;23.274;2022-10-31T05:11:13;96105.94;;;8.40
42119;BMP280;27783;42.782;23.274;2022-10-31T05:13:41;96106.25;;;8.60
42119;BMP280;27783;42.782;23.274;2022-10-31T05:16:06;96104.56;;;8.46
42119;BMP280;27783;42.782;23.274;2022-10-31T05:18:33;96099.63;;;8.44
42119;BMP280;27783;42.782;23.274;2022-10-31T05:20:59;96104.56;;;8.46
42119;BMP280;27783;42.782;23.274;2022-10-31T05:23:24;96112.34;;;8.17
42119;BMP280;27783;42.782;23.274;2022-10-31T05:25:51;96115.44;;;8.48
42119;BMP280;27783;42.782;23.274;2022-10-31T05:28:16;96122.31;;;8.30
42119;BMP280;27783;42.782;23.274;2022-10-31T05:30:42;96122.72;;;8.32
42119;BMP280;27783;42.782;23.274;2022-10-31T05:33:23;96122.63;;;8.25
42119;BMP280;27783;42.782;23.274;2022-10-31T05:35:48;96123.72;;;8.24
42119;BMP280;27783;42.782;23.274;2022-10-31T05:38:16;96121.31;;;8.38
42119;BMP280;27783;42.782;23.274;2022-10-31T05:40:41;96127.31;;;8.38
42119;BMP280;27783;42.782;23.274;2022-10-31T05:43:07;96137.78;;;8.35
42119;BMP280;27783;42.782;23.274;2022-10-31T05:45:32;96128.59;;;8.48
42119;BMP280;27783;42.782;23.274;2022-10-31T05:47:59;96135.03;;;8.53
42119;BMP280;27783;42.782;23.274;2022-10-31T05:50:27;96128.59;;;8.48
42119;BMP280;27783;42.782;23.274;2022-10-31T05:53:01;96139.41;;;8.68
42119;BMP280;27783;42.782;23.274;2022-10-31T05:55:27;96140.56;;;8.70
42119;BMP280;27783;42.782;23.274;2022-10-31T05:58:00;96136.31;;;8.63
42119;BMP280;27783;42.782;23.274;2022-10-31T06:00:28;96136.88;;;8.75
42119;BMP280;27783;42.782;23.274;2022-10-31T06:03:02;96139.78;;;8.95
42119;BMP280;27783;42.782;23.274;2022-10-31T06:05:28;96141.16;;;9.15
42119;BMP280;27783;42.782;23.274;2022-10-31T06:07:54;96147.16;;;9.12
42119;BMP280;27783;42.782;23.274;2022-10-31T06:10:19;96151.88;;;9.28
42119;BMP280;27783;42.782;23.274;2022-10-31T06:12:46;96150.63;;;9.51
42119;BMP280;27783;42.782;23.274;2022-10-31T06:15:12;96152.66;;;9.64
42119;BMP280;27783;42.782;23.274;2022-10-31T06:17:38;96158.88;;;9.82
42119;BMP280;27783;42.782;23.274;2022-10-31T06:20:04;96158.25;;;9.95
42119;BMP280;27783;42.782;23.274;2022-10-31T06:22:29;96160.34;;;10.15
42119;BMP280;27783;42.782;23.274;2022-10-31T06:24:55;96161.16;;;10.22
42119;BMP280;27783;42.782;23.274;2022-10-31T06:27:20;96166.22;;;10.44
42119;BMP280;27783;42.782;23.274;2022-10-31T06:29:46;96171.38;;;10.76
42119;BMP280;27783;42.782;23.274;2022-10-31T06:32:12;96174.03;;;10.76
42119;BMP280;27783;42.782;23.274;2022-10-31T06:34:38;96164.38;;;11.00
42119;BMP280;27783;42.782;23.274;2022-10-31T06:37:08;96173.50;;;11.09
42119;BMP280;27783;42.782;23.274;2022-10-31T06:39:35;96172.81;;;11.22
42119;BMP280;27783;42.782;23.274;2022-10-31T06:42:00;96167.28;;;11.44
42119;BMP280;27783;42.782;23.274;2022-10-31T06:44:26;96178.28;;;11.60
42119;BMP280;27783;42.782;23.274;2022-10-31T06:46:51;96187.44;;;11.89
42119;BMP280;27783;42.782;23.274;2022-10-31T06:49:17;96188.97;;;11.97
42119;BMP280;27783;42.782;23.274;2022-10-31T06:51:42;96182.97;;;12.20
42119;BMP280;27783;42.782;23.274;2022-10-31T06:54:08;96188.31;;;12.41
42119;BMP280;27783;42.782;23.274;2022-10-31T06:56:33;96184.56;;;12.69
42119;BMP280;27783;42.782;23.274;2022-10-31T06:58:59;96181.91;;;12.79
42119;BMP280;27783;42.782;23.274;2022-10-31T07:01:24;96188.31;;;13.05
42119;BMP280;27783;42.782;23.274;2022-10-31T07:03:50;96180.00;;;12.97
42119;BMP280;27783;42.782;23.274;2022-10-31T07:06:15;96179.56;;;13.25
42119;BMP280;27783;42.782;23.274;2022-10-31T07:08:40;96179.81;;;13.61
42119;BMP280;27783;42.782;23.274;2022-10-31T07:11:06;96179.53;;;13.42
42119;BMP280;27783;42.782;23.274;2022-10-31T07:13:31;96182.03;;;13.83
42119;BMP280;27783;42.782;23.274;2022-10-31T07:16:03;96174.69;;;14.11
42119;BMP280;27783;42.782;23.274;2022-10-31T07:18:29;96173.88;;;14.20
42119;BMP280;27783;42.782;23.274;2022-10-31T07:20:55;96178.81;;;14.22
42119;BMP280;27783;42.782;23.274;2022-10-31T07:23:21;96167.19;;;14.52
42119;BMP280;27783;42.782;23.274;2022-10-31T07:25:46;96173.69;;;14.97
42119;BMP280;27783;42.782;23.274;2022-10-31T07:28:11;96168.41;;;14.94
42119;BMP280;27783;42.782;23.274;2022-10-31T07:30:38;96162.56;;;15.09
42119;BMP280;27783;42.782;23.274;2022-10-31T07:33:04;96170.34;;;14.90
42119;BMP280;27783;42.782;23.274;2022-10-31T07:35:30;96159.28;;;15.34
42119;BMP280;27783;42.782;23.274;2022-10-31T07:37:56;96168.44;;;15.62
42119;BMP280;27783;42.782;23.274;2022-10-31T07:40:23;96167.00;;;15.18
42119;BMP280;27783;42.782;23.274;2022-10-31T07:42:52;96152.53;;;15.88
42119;BMP280;27783;42.782;23.274;2022-10-31T07:45:19;96159.22;;;16.28
42119;BMP280;27783;42.782;23.274;2022-10-31T07:47:49;96164.91;;;15.39
42119;BMP280;27783;42.782;23.274;2022-10-31T07:50:34;96150.72;;;16.62
42119;BMP280;27783;42.782;23.274;2022-10-31T07:53:09;96158.25;;;16.67
42119;BMP280;27783;42.782;23.274;2022-10-31T07:55:35;96163.56;;;16.19
42119;BMP280;27783;42.782;23.274;2022-10-31T07:58:06;96155.47;;;16.74
42119;BMP280;27783;42.782;23.274;2022-10-31T08:00:33;96165.34;;;16.99
42119;BMP280;27783;42.782;23.274;2022-10-31T08:02:59;96162.19;;;17.26
42119;BMP280;27783;42.782;23.274;2022-10-31T08:05:24;96156.72;;;16.44
42119;BMP280;27783;42.782;23.274;2022-10-31T08:07:50;96161.47;;;17.03
42119;BMP280;27783;42.782;23.274;2022-10-31T08:10:15;96151.81;;;16.65
42119;BMP280;27783;42.782;23.274;2022-10-31T08:12:41;96148.63;;;17.59
42119;BMP280;27783;42.782;23.274;2022-10-31T08:15:06;96144.44;;;17.39
42119;BMP280;27783;42.782;23.274;2022-10-31T08:17:35;96155.13;;;17.58
42119;BMP280;27783;42.782;23.274;2022-10-31T08:20:01;96145.59;;;18.14
42119;BMP280;27783;42.782;23.274;2022-10-31T08:22:26;96139.97;;;18.43
42119;BMP280;27783;42.782;23.274;2022-10-31T08:24:52;96142.13;;;18.48
42119;BMP280;27783;42.782;23.274;2022-10-31T08:27:17;96127.66;;;18.14
42119;BMP280;27783;42.782;23.274;2022-10-31T08:29:42;96141.34;;;18.66
42119;BMP280;27783;42.782;23.274;2022-10-31T08:32:08;96132.44;;;18.53
42119;BMP280;27783;42.782;23.274;2022-10-31T08:34:33;96121.22;;;18.77
42119;BMP280;27783;42.782;23.274;2022-10-31T08:36:58;96143.94;;;18.69
42119;BMP280;27783;42.782;23.274;2022-10-31T08:39:24;96123.31;;;19.29
42119;BMP280;27783;42.782;23.274;2022-10-31T08:41:50;96131.09;;;19.23
42119;BMP280;27783;42.782;23.274;2022-10-31T08:44:16;96139.09;;;19.23
42119;BMP280;27783;42.782;23.274;2022-10-31T08:46:41;96126.47;;;18.96
42119;BMP280;27783;42.782;23.274;2022-10-31T08:49:07;96127.34;;;19.21
42119;BMP280;27783;42.782;23.274;2022-10-31T08:51:33;96130.41;;;20.02
42119;BMP280;27783;42.782;23.274;2022-10-31T08:53:58;96128.03;;;19.52
42119;BMP280;27783;42.782;23.274;2022-10-31T08:56:25;96133.84;;;19.63
42119;BMP280;27783;42.782;23.274;2022-10-31T08:58:52;96127.66;;;20.54
42119;BMP280;27783;42.782;23.274;2022-10-31T09:01:18;96123.25;;;20.48
42119;BMP280;27783;42.782;23.274;2022-10-31T09:03:43;96117.75;;;20.88
42119;BMP280;27783;42.782;23.274;2022-10-31T09:06:09;96129.63;;;20.02
42119;BMP280;27783;42.782;23.274;2022-10-31T09:08:35;96124.41;;;20.23
42119;BMP280;27783;42.782;23.274;2022-10-31T09:11:01;96119.31;;;20.53
42119;BMP280;27783;42.782;23.274;2022-10-31T09:13:27;96113.09;;;20.43
42119;BMP280;27783;42.782;23.274;2022-10-31T09:15:52;96109.81;;;21.63
42119;BMP280;27783;42.782;23.274;2022-10-31T09:18:20;96117.16;;;21.50
42119;BMP280;27783;42.782;23.274;2022-10-31T09:20:46;96106.41;;;22.13
42119;BMP280;27783;42.782;23.274;2022-10-31T09:23:14;96109.34;;;22.06
42119;BMP280;27783;42.782;23.274;2022-10-31T09:25:40;96117.09;;;22.34
42119;BMP280;27783;42.782;23.274;2022-10-31T09:28:08;96110.63;;;22.22
42119;BMP280;27783;42.782;23.274;2022-10-31T09:30:35;96106.25;;;22.84
42119;BMP280;27783;42.782;23.274;2022-10-31T09:33:19;96108.03;;;22.49
42119;BMP280;27783;42.782;23.274;2022-10-31T09:35:45;96107.41;;;22.06
42119;BMP280;27783;42.782;23.274;2022-10-31T09:40:40;96106.53;;;22.77
42119;BMP280;27783;42.782;23.274;2022-10-31T09:49:37;96084.47;;;23.08
42119;BMP280;27783;42.782;23.274;2022-10-31T09:52:15;96092.91;;;22.63
42119;BMP280;27783;42.782;23.274;2022-10-31T09:54:55;96087.63;;;23.07
42119;BMP280;27783;42.782;23.274;2022-10-31T09:57:26;96086.00;;;23.36
42119;BMP280;27783;42.782;23.274;2022-10-31T09:59:53;96084.00;;;23.97
42119;BMP280;27783;42.782;23.274;2022-10-31T10:02:30;96077.91;;;23.62
42119;BMP280;27783;42.782;23.274;2022-10-31T10:05:01;96071.59;;;24.00
42119;BMP280;27783;42.782;23.274;2022-10-31T10:09:58;96062.09;;;24.53
42119;BMP280;27783;42.782;23.274;2022-10-31T10:12:48;96072.25;;;23.51
42119;BMP280;27783;42.782;23.274;2022-10-31T10:15:28;96064.13;;;23.95
42119;BMP280;27783;42.782;23.274;2022-10-31T10:26:20;96041.59;;;25.24
42119;BMP280;27783;42.782;23.274;2022-10-31T10:29:00;96041.59;;;24.47
42119;BMP280;27783;42.782;23.274;2022-10-31T10:31:35;96045.59;;;24.28
42119;BMP280;27783;42.782;23.274;2022-10-31T10:34:05;96044.28;;;24.47
42119;BMP280;27783;42.782;23.274;2022-10-31T10:36:38;96039.47;;;24.59
42119;BMP280;27783;42.782;23.274;2022-10-31T10:39:14;96026.81;;;24.74
42119;BMP280;27783;42.782;23.274;2022-10-31T10:41:44;96022.19;;;24.34
42119;BMP280;27783;42.782;23.274;2022-10-31T10:44:10;96028.56;;;24.77
42119;BMP280;27783;42.782;23.274;2022-10-31T10:46:53;96023.09;;;24.63
42119;BMP280;27783;42.782;23.274;2022-10-31T10:49:51;96017.50;;;24.43
42119;BMP280;27783;42.782;23.274;2022-10-31T10:55:46;96014.03;;;24.97
42119;BMP280;27783;42.782;23.274;2022-10-31T10:58:14;96010.66;;;25.48
42119;BMP280;27783;42.782;23.274;2022-10-31T11:00:41;96010.53;;;25.06
42119;BMP280;27783;42.782;23.274;2022-10-31T11:03:09;96007.25;;;25.24
42119;BMP280;27783;42.782;23.274;2022-10-31T11:05:57;96000.56;;;25.48
42119;BMP280;27783;42.782;23.274;2022-10-31T11:08:29;96008.41;;;24.87
42119;BMP280;27783;42.782;23.274;2022-10-31T11:13:33;95992.63;;;25.17
42119;BMP280;27783;42.782;23.274;2022-10-31T11:16:04;95980.00;;;25.51
42119;BMP280;27783;42.782;23.274;2022-10-31T11:18:37;95984.38;;;25.34
42119;BMP280;27783;42.782;23.274;2022-10-31T11:23:31;95964.91;;;25.58
42119;BMP280;27783;42.782;23.274;2022-10-31T11:25:58;95965.78;;;26.26
42119;BMP280;27783;42.782;23.274;2022-10-31T11:28:26;95958.00;;;26.14
42119;BMP280;27783;42.782;23.274;2022-10-31T11:30:54;95957.66;;;26.40
42119;BMP280;27783;42.782;23.274;2022-10-31T11:33:23;95961.91;;;26.13
42119;BMP280;27783;42.782;23.274;2022-10-31T11:35:50;95951.78;;;26.27
42119;BMP280;27783;42.782;23.274;2022-10-31T11:38:19;95953.31;;;26.87
42119;BMP280;27783;42.782;23.274;2022-10-31T11:40:59;95954.03;;;26.29
42119;BMP280;27783;42.782;23.274;2022-10-31T11:43:28;95952.19;;;26.21
42119;BMP280;27783;42.782;23.274;2022-10-31T11:45:54;95945.47;;;26.30
42119;BMP280;27783;42.782;23.274;2022-10-31T11:48:22;95943.94;;;26.82
42119;BMP280;27783;42.782;23.274;2022-10-31T11:50:56;95943.72;;;26.13
42119;BMP280;27783;42.782;23.274;2022-10-31T11:53:28;95939.94;;;26.06
42119;BMP280;27783;42.782;23.274;2022-10-31T11:58:31;95929.13;;;26.58
42119;BMP280;27783;42.782;23.274;2022-10-31T12:00:57;95930.84;;;26.23
42119;BMP280;27783;42.782;23.274;2022-10-31T12:05:56;95911.53;;;27.07
42119;BMP280;27783;42.782;23.274;2022-10-31T12:08:25;95925.44;;;27.20
42119;BMP280;27783;42.782;23.274;2022-10-31T12:11:03;95921.38;;;26.66
42119;BMP280;27783;42.782;23.274;2022-10-31T12:13:35;95914.22;;;27.07
42119;BMP280;27783;42.782;23.274;2022-10-31T12:16:27;95919.75;;;27.18
42119;BMP280;27783;42.782;23.274;2022-10-31T12:19:04;95906.19;;;27.42
42119;BMP280;27783;42.782;23.274;2022-10-31T12:21:42;95903.19;;;27.10
42119;BMP280;27783;42.782;23.274;2022-10-31T12:24:40;95913.06;;;27.63
42119;BMP280;27783;42.782;23.274;2022-10-31T12:27:51;95904.56;;;27.75
42119;BMP280;27783;42.782;23.274;2022-10-31T12:30:24;95901.97;;;27.11
42119;BMP280;27783;42.782;23.274;2022-10-31T12:41:20;95903.31;;;27.76
42119;BMP280;27783;42.782;23.274;2022-10-31T12:46:27;95897.44;;;27.03
42119;BMP280;27783;42.782;23.274;2022-10-31T12:52:04;95890.88;;;28.25
42119;BMP280;27783;42.782;23.274;2022-10-31T12:57:26;95898.75;;;27.62
42119;BMP280;27783;42.782;23.274;2022-10-31T12:59:57;95891.94;;;27.42
42119;BMP280;27783;42.782;23.274;2022-10-31T13:05:03;95896.88;;;27.19
42119;BMP280;27783;42.782;23.274;2022-10-31T13:07:36;95905.22;;;25.85
42119;BMP280;27783;42.782;23.274;2022-10-31T13:10:15;95892.72;;;26.98
42119;BMP280;27783;42.782;23.274;2022-10-31T13:12:42;95900.19;;;26.64
42119;BMP280;27783;42.782;23.274;2022-10-31T13:15:28;95899.34;;;26.97
42119;BMP280;27783;42.782;23.274;2022-10-31T13:18:03;95894.50;;;26.82
42119;BMP280;27783;42.782;23.274;2022-10-31T13:20:33;95903.09;;;26.41
42119;BMP280;27783;42.782;23.274;2022-10-31T13:23:14;95899.59;;;26.22
42119;BMP280;27783;42.782;23.274;2022-10-31T13:25:46;95896.09;;;26.16
42119;BMP280;27783;42.782;23.274;2022-10-31T13:31:03;95908.78;;;26.10
42119;BMP280;27783;42.782;23.274;2022-10-31T13:33:33;95901.16;;;25.61
42119;BMP280;27783;42.782;23.274;2022-10-31T13:38:56;95907.56;;;25.49
42119;BMP280;27783;42.782;23.274;2022-10-31T13:41:35;95912.09;;;25.86
42119;BMP280;27783;42.782;23.274;2022-10-31T13:44:24;95897.19;;;25.90
42119;BMP280;27783;42.782;23.274;2022-10-31T13:46:52;95900.84;;;25.73
42119;BMP280;27783;42.782;23.274;2022-10-31T13:52:25;95910.94;;;25.30
42119;BMP280;27783;42.782;23.274;2022-10-31T13:54:52;95907.78;;;25.18
42119;BMP280;27783;42.782;23.274;2022-10-31T13:57:42;95916.09;;;25.06
42119;BMP280;27783;42.782;23.274;2022-10-31T14:02:49;95917.25;;;25.27
42119;BMP280;27783;42.782;23.274;2022-10-31T14:05:23;95907.72;;;25.04
42119;BMP280;27783;42.782;23.274;2022-10-31T14:07:52;95912.25;;;24.84
42119;BMP280;27783;42.782;23.274;2022-10-31T14:10:31;95919.78;;;24.80
42119;BMP280;27783;42.782;23.274;2022-10-31T14:15:28;95919.72;;;24.52
42119;BMP280;27783;42.782;23.274;2022-10-31T14:17:54;95922.66;;;24.54
42119;BMP280;27783;42.782;23.274;2022-10-31T14:20:24;95921.06;;;24.24
42119;BMP280;27783;42.782;23.274;2022-10-31T14:22:50;95923.47;;;24.23
42119;BMP280;27783;42.782;23.274;2022-10-31T14:25:26;95926.28;;;24.28
42119;BMP280;27783;42.782;23.274;2022-10-31T14:27:51;95928.44;;;24.15
42119;BMP280;27783;42.782;23.274;2022-10-31T14:30:23;95925.59;;;24.19
42119;BMP280;27783;42.782;23.274;2022-10-31T14:32:56;95931.72;;;23.88
42119;BMP280;27783;42.782;23.274;2022-10-31T14:35:26;95927.66;;;23.92
42119;BMP280;27783;42.782;23.274;2022-10-31T14:38:26;95929.25;;;23.67
42119;BMP280;27783;42.782;23.274;2022-10-31T14:41:03;95934.44;;;23.79
42119;BMP280;27783;42.782;23.274;2022-10-31T14:43:44;95929.81;;;23.71
42119;BMP280;27783;42.782;23.274;2022-10-31T14:51:39;95930.91;;;22.98
42119;BMP280;27783;42.782;23.274;2022-10-31T14:54:09;95933.88;;;22.73
42119;BMP280;27783;42.782;23.274;2022-10-31T14:56:39;95932.22;;;23.20
42119;BMP280;27783;42.782;23.274;2022-10-31T14:59:09;95935.50;;;22.88
42119;BMP280;27783;42.782;23.274;2022-10-31T15:01:38;95935.50;;;22.54
42119;BMP280;27783;42.782;23.274;2022-10-31T15:04:14;95933.56;;;22.63
42119;BMP280;27783;42.782;23.274;2022-10-31T15:06:43;95934.56;;;22.21
42119;BMP280;27783;42.782;23.274;2022-10-31T15:11:48;95932.09;;;21.97
42119;BMP280;27783;42.782;23.274;2022-10-31T15:14:23;95938.34;;;21.94
42119;BMP280;27783;42.782;23.274;2022-10-31T15:16:48;95930.59;;;21.96
42119;BMP280;27783;42.782;23.274;2022-10-31T15:19:21;95937.19;;;21.66
42119;BMP280;27783;42.782;23.274;2022-10-31T15:21:47;95930.16;;;21.30
42119;BMP280;27783;42.782;23.274;2022-10-31T15:24:14;95946.25;;;21.09
42119;BMP280;27783;42.782;23.274;2022-10-31T15:26:46;95941.28;;;21.20
42119;BMP280;27783;42.782;23.274;2022-10-31T15:29:17;95944.34;;;21.09
42119;BMP280;27783;42.782;23.274;2022-10-31T15:32:15;95948.09;;;20.79
42119;BMP280;27783;42.782;23.274;2022-10-31T15:34:43;95952.41;;;20.76
42119;BMP280;27783;42.782;23.274;2022-10-31T15:37:20;95956.38;;;20.72
42119;BMP280;27783;42.782;23.274;2022-10-31T15:39:48;95954.16;;;20.37
42119;BMP280;27783;42.782;23.274;2022-10-31T15:42:35;95948.69;;;20.41
42119;BMP280;27783;42.782;23.274;2022-10-31T15:45:27;95953.94;;;20.20
42119;BMP280;27783;42.782;23.274;2022-10-31T15:48:04;95955.28;;;19.91
42119;BMP280;27783;42.782;23.274;2022-10-31T15:50:56;95952.03;;;19.96
42119;BMP280;27783;42.782;23.274;2022-10-31T15:53:50;95970.56;;;19.79
42119;BMP280;27783;42.782;23.274;2022-10-31T15:56:28;95971.13;;;19.62
42119;BMP280;27783;42.782;23.274;2022-10-31T15:58:56;95967.06;;;19.30
42119;BMP280;27783;42.782;23.274;2022-10-31T16:06:38;95977.66;;;19.21
42119;BMP280;27783;42.782;23.274;2022-10-31T16:09:21;95983.66;;;18.97
42119;BMP280;27783;42.782;23.274;2022-10-31T16:11:47;95982.94;;;18.69